Time;durP1;ratioP1;P1;durP2;ratioP2;P2;SDS_P1;SDS_P2;PMS_P1;PMS_P2;Temp;Humidity;BMP_temperature;BMP_pressure;BME280_temperature;BME280_humidity;BME280_pressure;Samples;Min_cycle;Max_cycle;Signal;HPM_P1;HPM_P2
2023/10/15 00:01:07;;;;;;;19.02;2.33;;;;;;;;;;5009844;28;20408;-73
2023/10/15 00:03:34;;;;;;;20.20;2.47;;;;;;;;;;5044850;28;20409;-73
2023/10/15 00:06:01;;;;;;;16.23;2.30;;;;;;;;;;5010390;28;20424;-74
2023/10/15 00:08:28;;;;;;;19.38;3.10;;;;;;;;;;5044616;28;20957;-71
2023/10/15 00:10:54;;;;;;;17.60;2.65;;;;;;;;;;5011597;28;20756;-73
2023/10/15 00:13:23;;;;;;;16.83;2.45;;;;;;;;;;5012939;28;20412;-73
2023/10/15 00:15:51;;;;;;;17.40;2.60;;;;;;;;;;5043841;28;20969;-72
2023/10/15 00:18:19;;;;;;;20.52;3.05;;;;;;;;;;5011616;28;20430;-71
2023/10/15 00:20:51;;;;;;;23.02;2.40;;;;;;;;;;5018902;28;20906;-73
2023/10/15 00:23:18;;;;;;;16.88;2.30;;;;;;;;;;5012703;28;20448;-73
2023/10/15 00:25:59;;;;;;;20.98;3.22;;;;;;;;;;5009227;28;20911;-73
2023/10/15 00:28:29;;;;;;;18.90;2.90;;;;;;;;;;5011762;28;20507;-71
2023/10/15 00:31:08;;;;;;;22.33;3.53;;;;;;;;;;5026750;28;21004;-72
2023/10/15 00:33:46;;;;;;;18.88;3.00;;;;;;;;;;5011089;28;20927;-75
2023/10/15 00:36:16;;;;;;;17.02;2.20;;;;;;;;;;5025065;28;20437;-72
2023/10/15 00:38:53;;;;;;;18.55;2.50;;;;;;;;;;5012268;28;20471;-72
2023/10/15 00:41:20;;;;;;;17.83;2.15;;;;;;;;;;5012057;28;20408;-72
2023/10/15 00:43:54;;;;;;;19.40;2.77;;;;;;;;;;5011167;28;20459;-73
2023/10/15 00:46:29;;;;;;;18.48;2.45;;;;;;;;;;5010154;28;20448;-74
2023/10/15 00:49:09;;;;;;;18.40;2.22;;;;;;;;;;4991989;28;20481;-72
2023/10/15 00:51:40;;;;;;;17.57;2.37;;;;;;;;;;5011237;28;20462;-75
2023/10/15 00:54:11;;;;;;;18.77;2.30;;;;;;;;;;5011588;28;20428;-73
2023/10/15 00:56:39;;;;;;;18.17;2.30;;;;;;;;;;5009029;28;20475;-73
2023/10/15 01:01:35;;;;;;;20.90;2.60;;;;;;;;;;5011496;28;20447;-72
2023/10/15 01:04:09;;;;;;;19.27;2.50;;;;;;;;;;5023577;28;20857;-73
2023/10/15 01:06:44;;;;;;;20.17;2.43;;;;;;;;;;5005410;28;20466;-74
2023/10/15 01:09:27;;;;;;;19.38;2.75;;;;;;;;;;5010437;28;20409;-74
2023/10/15 01:11:57;;;;;;;22.20;3.80;;;;;;;;;;5043523;28;20420;-71
2023/10/15 01:14:31;;;;;;;19.63;3.25;;;;;;;;;;5025817;28;20460;-72
2023/10/15 01:16:59;;;;;;;15.85;2.35;;;;;;;;;;5009347;28;20405;-71
2023/10/15 01:19:32;;;;;;;17.42;3.15;;;;;;;;;;5010992;28;20431;-74
2023/10/15 01:22:02;;;;;;;16.67;2.88;;;;;;;;;;5012802;28;20405;-73
2023/10/15 01:24:41;;;;;;;22.27;3.50;;;;;;;;;;5043431;28;20436;-71
2023/10/15 01:27:10;;;;;;;19.60;3.30;;;;;;;;;;5011052;28;20919;-72
2023/10/15 01:29:38;;;;;;;18.17;2.40;;;;;;;;;;5013503;28;20408;-72
2023/10/15 01:32:18;;;;;;;19.05;3.00;;;;;;;;;;5011253;28;20419;-72
2023/10/15 01:34:45;;;;;;;18.53;2.20;;;;;;;;;;5011093;28;20515;-71
2023/10/15 01:39:53;;;;;;;17.70;2.35;;;;;;;;;;5044639;28;20444;-71
2023/10/15 01:44:58;;;;;;;19.75;2.65;;;;;;;;;;5041649;28;20491;-71
2023/10/15 01:47:29;;;;;;;17.60;2.50;;;;;;;;;;5024511;28;20493;-71
2023/10/15 01:49:56;;;;;;;16.63;2.30;;;;;;;;;;5009205;28;20400;-72
2023/10/15 01:52:32;;;;;;;18.13;2.38;;;;;;;;;;4999458;28;20401;-72
2023/10/15 01:55:04;;;;;;;19.70;2.30;;;;;;;;;;5013434;28;20455;-71
2023/10/15 01:57:33;;;;;;;21.15;2.60;;;;;;;;;;5010102;28;20412;-75
2023/10/15 02:00:12;;;;;;;18.05;2.33;;;;;;;;;;5009961;28;20440;-73
2023/10/15 02:02:43;;;;;;;19.50;3.03;;;;;;;;;;5007471;28;20434;-72
2023/10/15 02:05:29;;;;;;;19.95;2.70;;;;;;;;;;5010062;28;20432;-72
2023/10/15 02:07:56;;;;;;;16.83;2.40;;;;;;;;;;5008214;28;20504;-71
2023/10/15 02:10:23;;;;;;;18.40;3.30;;;;;;;;;;5026071;28;20409;-72
2023/10/15 02:12:59;;;;;;;19.13;2.43;;;;;;;;;;5017796;28;20512;-72
2023/10/15 02:15:31;;;;;;;19.30;2.70;;;;;;;;;;4997852;28;20849;-72
2023/10/15 02:17:59;;;;;;;19.50;2.60;;;;;;;;;;5017939;28;20430;-72
2023/10/15 02:23:18;;;;;;;17.00;2.30;;;;;;;;;;5013252;28;21012;-71
2023/10/15 02:25:46;;;;;;;19.38;2.60;;;;;;;;;;4995966;28;20428;-73
2023/10/15 02:28:25;;;;;;;17.50;2.22;;;;;;;;;;5029440;28;20416;-72
2023/10/15 02:31:00;;;;;;;18.58;2.22;;;;;;;;;;5013319;28;20467;-72
2023/10/15 02:33:27;;;;;;;19.10;2.83;;;;;;;;;;5017274;28;20424;-73
2023/10/15 02:36:06;;;;;;;18.40;2.30;;;;;;;;;;5015019;28;20971;-72
2023/10/15 02:38:34;;;;;;;17.65;2.50;;;;;;;;;;5013413;28;20499;-71
2023/10/15 02:41:05;;;;;;;24.60;3.08;;;;;;;;;;5018372;28;20435;-76
2023/10/15 02:43:36;;;;;;;16.35;2.33;;;;;;;;;;5013129;28;20409;-73
2023/10/15 02:46:17;;;;;;;19.90;2.60;;;;;;;;;;5044873;28;20967;-72
2023/10/15 02:48:44;;;;;;;19.20;3.10;;;;;;;;;;5003610;28;20425;-71
2023/10/15 02:51:14;;;;;;;24.80;2.60;;;;;;;;;;5014173;28;20400;-73
2023/10/15 02:53:50;;;;;;;21.63;2.30;;;;;;;;;;5016395;28;20441;-72
2023/10/15 02:56:17;;;;;;;22.15;3.22;;;;;;;;;;5012571;28;20825;-72
2023/10/15 02:58:46;;;;;;;16.77;2.55;;;;;;;;;;5012703;28;20413;-72
2023/10/15 03:01:17;;;;;;;18.90;2.50;;;;;;;;;;5013271;28;20774;-72
2023/10/15 03:03:49;;;;;;;18.48;2.50;;;;;;;;;;4997063;28;20479;-73
2023/10/15 03:06:19;;;;;;;19.40;3.03;;;;;;;;;;5012829;28;20408;-72
2023/10/15 03:08:46;;;;;;;17.42;3.08;;;;;;;;;;5029492;28;20490;-73
2023/10/15 03:11:19;;;;;;;19.83;2.90;;;;;;;;;;5014288;28;20424;-73
2023/10/15 03:14:00;;;;;;;16.88;2.40;;;;;;;;;;5009856;28;20410;-73
2023/10/15 03:16:32;;;;;;;22.27;2.40;;;;;;;;;;5013338;28;20425;-72
2023/10/15 03:19:19;;;;;;;21.38;2.60;;;;;;;;;;4995913;28;20459;-71
2023/10/15 03:21:46;;;;;;;18.42;2.58;;;;;;;;;;5011885;28;20413;-73
2023/10/15 03:24:14;;;;;;;21.27;2.65;;;;;;;;;;5010243;28;20996;-73
2023/10/15 03:26:47;;;;;;;23.55;2.53;;;;;;;;;;5001185;28;20820;-72
2023/10/15 03:29:15;;;;;;;18.30;2.88;;;;;;;;;;5045231;28;20423;-73
2023/10/15 03:31:54;;;;;;;18.70;2.20;;;;;;;;;;5001813;28;20495;-72
2023/10/15 03:34:25;;;;;;;17.80;2.60;;;;;;;;;;5045436;28;21077;-73
2023/10/15 03:36:58;;;;;;;18.17;2.80;;;;;;;;;;5042488;28;20463;-74
2023/10/15 03:42:17;;;;;;;19.80;2.90;;;;;;;;;;5012621;28;20405;-72
2023/10/15 03:44:47;;;;;;;17.30;2.65;;;;;;;;;;5011802;28;20503;-72
2023/10/15 03:47:15;;;;;;;19.17;2.88;;;;;;;;;;5017138;28;20500;-75
2023/10/15 03:49:44;;;;;;;19.00;2.60;;;;;;;;;;5013248;28;20443;-74
2023/10/15 03:52:14;;;;;;;19.00;2.50;;;;;;;;;;5011902;28;20958;-73
2023/10/15 03:54:47;;;;;;;17.60;2.50;;;;;;;;;;5013559;28;20912;-72
2023/10/15 03:57:17;;;;;;;21.45;3.10;;;;;;;;;;5011234;28;20431;-71
2023/10/15 03:59:51;;;;;;;20.20;2.40;;;;;;;;;;5011820;28;20502;-74
2023/10/15 04:02:39;;;;;;;20.20;2.40;;;;;;;;;;4998958;28;20428;-71
2023/10/15 04:05:14;;;;;;;20.80;2.50;;;;;;;;;;5012100;28;20396;-72
2023/10/15 04:07:48;;;;;;;19.90;2.50;;;;;;;;;;5012711;28;20421;-74
2023/10/15 04:10:21;;;;;;;17.65;2.42;;;;;;;;;;5027854;28;20893;-74
2023/10/15 04:12:47;;;;;;;17.77;2.40;;;;;;;;;;5006141;28;20419;-72
2023/10/15 04:15:17;;;;;;;20.42;2.80;;;;;;;;;;5012666;28;20424;-72
2023/10/15 04:17:48;;;;;;;16.48;2.00;;;;;;;;;;5008779;28;20397;-74
2023/10/15 04:20:15;;;;;;;20.42;2.67;;;;;;;;;;5016496;28;20407;-73
2023/10/15 04:22:46;;;;;;;19.88;2.33;;;;;;;;;;5011855;28;20495;-73
2023/10/15 04:25:26;;;;;;;17.48;2.20;;;;;;;;;;5009445;28;20516;-72
2023/10/15 04:27:54;;;;;;;15.67;2.20;;;;;;;;;;5027841;28;20475;-73
2023/10/15 04:30:24;;;;;;;16.60;1.90;;;;;;;;;;5011645;28;20452;-72
2023/10/15 04:32:52;;;;;;;16.90;2.33;;;;;;;;;;5010760;28;20927;-72
2023/10/15 04:35:25;;;;;;;19.10;2.25;;;;;;;;;;5008877;28;20458;-75
2023/10/15 04:37:53;;;;;;;17.10;2.80;;;;;;;;;;5001944;28;20458;-72
2023/10/15 04:40:23;;;;;;;22.02;3.10;;;;;;;;;;5011786;28;20409;-72
2023/10/15 04:42:51;;;;;;;19.13;3.10;;;;;;;;;;5009070;28;20448;-75
2023/10/15 04:45:23;;;;;;;21.88;3.05;;;;;;;;;;5011718;28;20432;-72
2023/10/15 04:48:02;;;;;;;17.88;3.47;;;;;;;;;;4991844;28;20962;-72
2023/10/15 04:50:32;;;;;;;20.88;3.50;;;;;;;;;;5013380;28;20403;-72
2023/10/15 04:53:23;;;;;;;20.45;3.25;;;;;;;;;;5014266;28;20404;-73
2023/10/15 04:55:51;;;;;;;19.60;2.88;;;;;;;;;;5042372;28;20452;-72
2023/10/15 04:58:20;;;;;;;17.98;3.20;;;;;;;;;;5012546;28;20508;-72
2023/10/15 05:00:50;;;;;;;18.30;2.90;;;;;;;;;;5042756;28;20471;-73
2023/10/15 05:03:18;;;;;;;16.85;2.40;;;;;;;;;;5009186;28;20836;-73
2023/10/15 05:05:45;;;;;;;20.05;3.70;;;;;;;;;;4997640;28;20423;-73
2023/10/15 05:08:12;;;;;;;18.50;2.65;;;;;;;;;;5011686;28;20416;-72
2023/10/15 05:10:49;;;;;;;19.63;2.80;;;;;;;;;;5043063;28;20471;-74
2023/10/15 05:13:18;;;;;;;17.63;2.60;;;;;;;;;;5011574;28;20404;-74
2023/10/15 05:15:44;;;;;;;16.58;2.65;;;;;;;;;;5034347;28;20428;-72
2023/10/15 05:18:11;;;;;;;20.13;3.30;;;;;;;;;;5010764;28;20482;-72
2023/10/15 05:20:40;;;;;;;17.70;2.60;;;;;;;;;;5010192;28;20467;-72
2023/10/15 05:23:07;;;;;;;24.80;3.58;;;;;;;;;;5027021;28;20456;-73
2023/10/15 05:25:39;;;;;;;17.80;2.50;;;;;;;;;;5040624;28;20432;-75
2023/10/15 05:28:07;;;;;;;16.40;2.30;;;;;;;;;;5009566;28;20409;-71
2023/10/15 05:30:34;;;;;;;18.30;2.23;;;;;;;;;;5003540;28;20519;-74
2023/10/15 05:33:04;;;;;;;19.80;2.30;;;;;;;;;;5009244;28;20409;-73
2023/10/15 05:35:34;;;;;;;16.58;2.72;;;;;;;;;;5008141;28;20956;-75
2023/10/15 05:38:03;;;;;;;19.02;2.33;;;;;;;;;;5006351;28;20445;-73
2023/10/15 05:40:30;;;;;;;18.00;2.90;;;;;;;;;;5010059;28;20467;-74
2023/10/15 05:42:57;;;;;;;18.90;2.88;;;;;;;;;;5016192;28;20928;-76
2023/10/15 05:45:23;;;;;;;20.17;2.97;;;;;;;;;;5042862;28;20436;-72
2023/10/15 05:47:51;;;;;;;17.02;2.80;;;;;;;;;;5019196;28;20790;-78
2023/10/15 05:50:18;;;;;;;21.83;2.88;;;;;;;;;;5009851;28;20451;-72
2023/10/15 05:52:45;;;;;;;16.50;2.72;;;;;;;;;;5010203;28;20421;-74
2023/10/15 05:55:14;;;;;;;17.55;1.95;;;;;;;;;;5027761;28;20445;-73
2023/10/15 05:57:41;;;;;;;18.30;2.60;;;;;;;;;;5009166;28;20409;-74
2023/10/15 06:00:26;;;;;;;18.13;2.28;;;;;;;;;;5008265;28;20512;-72
2023/10/15 06:02:55;;;;;;;17.73;2.53;;;;;;;;;;5009588;28;20443;-76
2023/10/15 06:05:23;;;;;;;18.80;2.10;;;;;;;;;;5028153;28;20479;-73
2023/10/15 06:07:50;;;;;;;19.35;2.50;;;;;;;;;;5026729;28;20423;-73
2023/10/15 06:10:19;;;;;;;20.67;3.03;;;;;;;;;;5010608;28;20417;-73
2023/10/15 06:12:46;;;;;;;19.35;2.08;;;;;;;;;;5016017;28;20424;-77
2023/10/15 06:15:15;;;;;;;16.73;2.50;;;;;;;;;;5029364;28;20507;-75
2023/10/15 06:17:46;;;;;;;17.27;2.67;;;;;;;;;;5025771;28;20913;-72
2023/10/15 06:20:14;;;;;;;19.02;2.33;;;;;;;;;;5011282;28;20877;-74
2023/10/15 06:22:41;;;;;;;17.05;2.60;;;;;;;;;;5030232;28;20433;-73
2023/10/15 06:25:08;;;;;;;16.75;2.17;;;;;;;;;;5009379;28;20448;-73
2023/10/15 06:27:37;;;;;;;17.13;3.40;;;;;;;;;;5011318;28;20415;-74
2023/10/15 06:30:05;;;;;;;23.35;7.88;;;;;;;;;;5009647;28;20405;-75
2023/10/15 06:32:31;;;;;;;22.10;7.50;;;;;;;;;;5011189;28;20885;-75
2023/10/15 06:34:59;;;;;;;27.70;10.33;;;;;;;;;;5008131;28;20450;-72
2023/10/15 06:37:26;;;;;;;23.10;7.85;;;;;;;;;;4994878;28;20441;-75
2023/10/15 06:39:53;;;;;;;19.17;5.00;;;;;;;;;;5041577;28;20503;-73
2023/10/15 06:42:33;;;;;;;17.13;3.00;;;;;;;;;;5010538;28;20455;-73
2023/10/15 06:45:02;;;;;;;20.07;3.10;;;;;;;;;;5009785;28;20404;-73
2023/10/15 06:47:29;;;;;;;17.77;3.47;;;;;;;;;;5012541;28;20765;-74
2023/10/15 06:49:56;;;;;;;17.65;2.85;;;;;;;;;;5043631;28;20845;-75
2023/10/15 06:52:23;;;;;;;17.13;2.80;;;;;;;;;;5009792;28;20508;-75
2023/10/15 06:54:51;;;;;;;17.85;2.90;;;;;;;;;;5042605;28;20509;-74
2023/10/15 06:57:18;;;;;;;18.02;2.75;;;;;;;;;;5010738;28;20504;-76
2023/10/15 06:59:45;;;;;;;15.70;2.50;;;;;;;;;;5008201;28;20531;-75
2023/10/15 07:02:13;;;;;;;19.00;2.90;;;;;;;;;;5012177;28;20487;-73
2023/10/15 07:04:40;;;;;;;18.60;2.83;;;;;;;;;;5012296;28;20428;-73
2023/10/15 07:07:07;;;;;;;16.70;2.80;;;;;;;;;;5014736;28;20407;-77
2023/10/15 07:09:37;;;;;;;17.08;3.45;;;;;;;;;;4998659;28;20545;-75
2023/10/15 07:12:04;;;;;;;18.23;2.60;;;;;;;;;;5014349;28;20968;-75
2023/10/15 07:14:31;;;;;;;16.20;2.40;;;;;;;;;;5013665;28;20874;-73
2023/10/15 07:16:57;;;;;;;18.45;2.95;;;;;;;;;;5012506;28;20416;-74
2023/10/15 07:19:26;;;;;;;16.65;3.20;;;;;;;;;;5029175;28;20428;-74
2023/10/15 07:21:52;;;;;;;17.50;3.00;;;;;;;;;;5012699;28;21106;-73
2023/10/15 07:24:19;;;;;;;17.77;2.40;;;;;;;;;;5018355;28;20917;-73
2023/10/15 07:26:47;;;;;;;18.13;2.37;;;;;;;;;;5019104;28;20408;-75
2023/10/15 07:29:13;;;;;;;16.80;2.70;;;;;;;;;;5044857;28;20424;-74
2023/10/15 07:31:40;;;;;;;17.00;2.90;;;;;;;;;;5028799;28;20519;-76
2023/10/15 07:34:10;;;;;;;19.97;3.67;;;;;;;;;;5012774;28;20960;-74
2023/10/15 07:36:43;;;;;;;17.33;2.70;;;;;;;;;;5001571;28;20436;-73
2023/10/15 07:39:12;;;;;;;17.42;2.90;;;;;;;;;;5011673;28;20489;-74
2023/10/15 07:41:38;;;;;;;18.55;3.20;;;;;;;;;;5013897;28;20416;-75
2023/10/15 07:44:06;;;;;;;15.90;2.75;;;;;;;;;;5008235;28;20424;-75
2023/10/15 07:46:34;;;;;;;18.10;2.90;;;;;;;;;;5042118;28;20857;-74
2023/10/15 07:49:01;;;;;;;15.60;2.67;;;;;;;;;;5044047;28;20921;-76
2023/10/15 07:51:28;;;;;;;16.65;2.85;;;;;;;;;;5043113;28;20409;-73
2023/10/15 07:53:59;;;;;;;18.10;3.20;;;;;;;;;;5013107;28;20428;-74
2023/10/15 07:56:26;;;;;;;19.38;3.78;;;;;;;;;;5012580;28;20526;-74
2023/10/15 07:58:52;;;;;;;18.58;3.90;;;;;;;;;;5012137;28;20460;-74
2023/10/15 08:01:19;;;;;;;17.20;3.53;;;;;;;;;;5015608;28;20430;-74
2023/10/15 08:03:46;;;;;;;19.92;4.05;;;;;;;;;;5012385;28;20792;-76
2023/10/15 08:06:13;;;;;;;18.92;3.10;;;;;;;;;;5007775;28;20425;-74
2023/10/15 08:08:39;;;;;;;25.57;5.17;;;;;;;;;;5028348;28;20968;-73
2023/10/15 08:11:07;;;;;;;18.20;3.80;;;;;;;;;;5012935;28;20897;-73
2023/10/15 08:13:35;;;;;;;18.20;3.97;;;;;;;;;;5034618;28;20427;-75
2023/10/15 08:16:01;;;;;;;19.60;3.73;;;;;;;;;;5019374;28;20483;-73
2023/10/15 08:18:28;;;;;;;19.13;3.40;;;;;;;;;;5014550;28;21001;-74
2023/10/15 08:20:55;;;;;;;19.52;3.70;;;;;;;;;;5009762;28;20771;-73
2023/10/15 08:23:22;;;;;;;19.00;3.80;;;;;;;;;;5011441;28;20424;-73
2023/10/15 08:25:49;;;;;;;17.27;3.80;;;;;;;;;;5011518;28;20508;-74
2023/10/15 08:28:17;;;;;;;16.90;3.20;;;;;;;;;;5027848;28;20420;-74
2023/10/15 08:30:44;;;;;;;18.23;3.40;;;;;;;;;;5011108;28;20427;-74
2023/10/15 08:33:13;;;;;;;16.42;3.25;;;;;;;;;;5011150;28;20819;-75
2023/10/15 08:35:42;;;;;;;20.90;3.22;;;;;;;;;;5011986;28;20877;-73
2023/10/15 08:38:09;;;;;;;18.90;3.92;;;;;;;;;;5012475;28;20425;-75
2023/10/15 08:40:39;;;;;;;18.20;4.22;;;;;;;;;;5031604;28;20444;-75
2023/10/15 08:43:10;;;;;;;17.80;4.00;;;;;;;;;;5010367;28;20483;-75
2023/10/15 08:45:39;;;;;;;17.10;3.90;;;;;;;;;;5003247;28;20766;-74
2023/10/15 08:48:08;;;;;;;20.10;3.90;;;;;;;;;;5012781;28;20770;-74
2023/10/15 08:50:37;;;;;;;17.13;3.17;;;;;;;;;;5010447;28;20431;-75
2023/10/15 08:53:04;;;;;;;16.55;3.30;;;;;;;;;;5011379;28;20404;-75
2023/10/15 08:55:33;;;;;;;19.25;3.60;;;;;;;;;;5016319;28;20459;-73
2023/10/15 08:58:00;;;;;;;18.75;3.30;;;;;;;;;;5011125;28;20432;-73
2023/10/15 09:00:27;;;;;;;17.73;3.03;;;;;;;;;;5042875;28;20492;-72
2023/10/15 09:03:00;;;;;;;17.00;3.00;;;;;;;;;;5042877;28;20416;-72
2023/10/15 09:05:33;;;;;;;16.70;2.60;;;;;;;;;;5026149;28;20408;-75
2023/10/15 09:08:12;;;;;;;18.85;2.97;;;;;;;;;;5009287;28;20456;-74
2023/10/15 09:10:43;;;;;;;21.00;2.78;;;;;;;;;;5008012;28;20423;-73
2023/10/15 09:13:18;;;;;;;18.40;3.28;;;;;;;;;;5009932;28;20467;-73
2023/10/15 09:15:46;;;;;;;18.58;3.38;;;;;;;;;;5025460;28;20420;-74
2023/10/15 09:18:17;;;;;;;17.67;3.10;;;;;;;;;;5011130;28;20464;-74
2023/10/15 09:20:45;;;;;;;17.02;2.95;;;;;;;;;;5010593;28;20424;-75
2023/10/15 09:23:12;;;;;;;17.50;2.70;;;;;;;;;;5009605;28;20420;-74
2023/10/15 09:25:41;;;;;;;19.40;3.10;;;;;;;;;;5009348;28;20424;-75
2023/10/15 09:28:08;;;;;;;16.30;2.10;;;;;;;;;;5040405;28;20423;-77
2023/10/15 09:30:34;;;;;;;16.27;2.63;;;;;;;;;;4999790;28;20428;-74
2023/10/15 09:33:01;;;;;;;19.52;3.10;;;;;;;;;;5026183;28;20431;-74
2023/10/15 09:35:29;;;;;;;17.15;2.80;;;;;;;;;;5011020;28;20415;-75
2023/10/15 09:37:56;;;;;;;16.80;2.65;;;;;;;;;;5009471;28;20424;-75
2023/10/15 09:40:24;;;;;;;16.20;2.17;;;;;;;;;;5012165;28;20413;-75
2023/10/15 09:42:54;;;;;;;15.80;2.22;;;;;;;;;;5042800;28;20420;-74
2023/10/15 09:45:23;;;;;;;17.10;2.40;;;;;;;;;;5011154;28;20409;-74
2023/10/15 09:47:57;;;;;;;15.50;2.20;;;;;;;;;;5009442;28;20416;-74
2023/10/15 09:50:25;;;;;;;17.80;2.20;;;;;;;;;;5008449;28;20409;-73
2023/10/15 09:52:56;;;;;;;16.50;2.50;;;;;;;;;;5011044;28;20444;-75
2023/10/15 09:55:24;;;;;;;16.20;2.60;;;;;;;;;;5009160;28;20417;-74
2023/10/15 09:57:52;;;;;;;16.83;3.00;;;;;;;;;;5010977;28;20515;-74
2023/10/15 10:00:32;;;;;;;15.88;1.90;;;;;;;;;;5010876;28;20893;-74
2023/10/15 10:03:10;;;;;;;16.75;2.17;;;;;;;;;;5008942;28;20420;-76
2023/10/15 10:05:49;;;;;;;16.40;2.10;;;;;;;;;;5012413;28;20997;-75
2023/10/15 10:08:26;;;;;;;15.50;1.80;;;;;;;;;;5009107;28;20471;-73
2023/10/15 10:11:06;;;;;;;17.60;2.20;;;;;;;;;;5008637;28;20456;-72
2023/10/15 10:14:00;;;;;;;16.30;2.05;;;;;;;;;;5021181;28;20426;-71
2023/10/15 10:16:27;;;;;;;15.50;2.35;;;;;;;;;;5009077;28;20802;-74
2023/10/15 10:18:55;;;;;;;17.05;2.30;;;;;;;;;;5031083;28;20460;-73
2023/10/15 10:21:26;;;;;;;15.90;1.75;;;;;;;;;;5011450;28;20412;-76
2023/10/15 10:23:58;;;;;;;17.63;2.20;;;;;;;;;;5010378;28;20428;-76
2023/10/15 10:26:27;;;;;;;16.27;2.40;;;;;;;;;;5016210;28;20574;-76
2023/10/15 10:28:56;;;;;;;15.77;1.98;;;;;;;;;;5015463;28;20412;-79
2023/10/15 10:31:23;;;;;;;15.70;2.40;;;;;;;;;;5024021;28;20409;-81
2023/10/15 10:33:50;;;;;;;16.10;2.40;;;;;;;;;;5034643;28;20430;-74
2023/10/15 10:36:18;;;;;;;15.50;1.80;;;;;;;;;;5015489;28;20408;-74
2023/10/15 10:38:52;;;;;;;19.73;2.30;;;;;;;;;;5014044;28;20424;-75
2023/10/15 10:41:21;;;;;;;15.73;2.30;;;;;;;;;;5021219;28;20439;-77
2023/10/15 10:43:53;;;;;;;15.27;1.70;;;;;;;;;;5049125;28;20516;-74
2023/10/15 10:46:40;;;;;;;16.37;2.10;;;;;;;;;;5041363;28;20389;-76
2023/10/15 10:49:13;;;;;;;17.30;2.00;;;;;;;;;;5012304;28;20413;-77
2023/10/15 10:51:40;;;;;;;15.70;1.83;;;;;;;;;;5042319;28;20978;-77
2023/10/15 10:54:26;;;;;;;17.10;1.90;;;;;;;;;;5014455;28;20420;-76
2023/10/15 10:56:59;;;;;;;15.40;1.60;;;;;;;;;;5012097;28;20432;-76
2023/10/15 10:59:28;;;;;;;16.80;1.80;;;;;;;;;;5000018;28;20424;-76
2023/10/15 11:01:55;;;;;;;17.35;1.88;;;;;;;;;;5011288;28;20423;-77
2023/10/15 11:04:24;;;;;;;16.10;1.80;;;;;;;;;;5012174;28;20443;-76
2023/10/15 11:06:52;;;;;;;15.50;1.70;;;;;;;;;;5012901;28;20432;-75
2023/10/15 11:09:22;;;;;;;18.00;1.70;;;;;;;;;;5036176;28;20560;-74
2023/10/15 11:11:50;;;;;;;16.92;1.70;;;;;;;;;;5035620;28;20447;-75
2023/10/15 11:14:20;;;;;;;17.00;1.60;;;;;;;;;;5011458;28;20429;-76
2023/10/15 11:16:47;;;;;;;15.65;1.65;;;;;;;;;;5017626;28;20918;-74
2023/10/15 11:19:14;;;;;;;15.55;1.80;;;;;;;;;;5013647;28;20409;-75
2023/10/15 11:21:41;;;;;;;16.02;1.60;;;;;;;;;;5013357;28;20408;-74
2023/10/15 11:24:09;;;;;;;17.70;2.30;;;;;;;;;;5013449;28;20467;-73
2023/10/15 11:26:36;;;;;;;14.70;1.40;;;;;;;;;;5033281;28;20458;-73
2023/10/15 11:29:03;;;;;;;15.95;2.38;;;;;;;;;;5044583;28;20416;-76
2023/10/15 11:31:31;;;;;;;15.80;1.70;;;;;;;;;;5014111;28;20413;-74
2023/10/15 11:33:59;;;;;;;14.95;1.30;;;;;;;;;;5013749;28;20405;-77
2023/10/15 11:36:27;;;;;;;14.68;1.20;;;;;;;;;;5011474;28;20424;-77
2023/10/15 11:38:53;;;;;;;14.23;1.13;;;;;;;;;;5013575;28;20486;-77
2023/10/15 11:41:22;;;;;;;14.20;1.10;;;;;;;;;;5016819;28;20425;-77
2023/10/15 11:43:49;;;;;;;14.63;1.20;;;;;;;;;;5027981;28;20460;-74
2023/10/15 11:46:19;;;;;;;15.52;1.50;;;;;;;;;;5028410;28;20482;-75
2023/10/15 11:48:48;;;;;;;15.60;1.10;;;;;;;;;;5014076;28;20723;-75
2023/10/15 11:51:16;;;;;;;15.25;1.30;;;;;;;;;;5012371;28;20939;-75
2023/10/15 11:53:46;;;;;;;15.32;1.30;;;;;;;;;;5013219;28;20416;-74
2023/10/15 11:56:16;;;;;;;15.95;1.30;;;;;;;;;;5012640;28;20420;-74
2023/10/15 11:58:45;;;;;;;14.85;1.50;;;;;;;;;;5027994;28;20534;-76
2023/10/15 12:01:15;;;;;;;15.80;1.60;;;;;;;;;;5011654;28;20405;-76
2023/10/15 12:03:42;;;;;;;15.80;1.40;;;;;;;;;;5043671;28;20486;-73
2023/10/15 12:06:10;;;;;;;15.70;1.90;;;;;;;;;;5010910;28;20486;-75
2023/10/15 12:08:37;;;;;;;16.95;2.28;;;;;;;;;;5026899;28;20465;-73
2023/10/15 12:11:04;;;;;;;14.40;1.53;;;;;;;;;;5012050;28;21049;-75
2023/10/15 12:13:31;;;;;;;16.20;1.73;;;;;;;;;;5015967;28;20441;-76
2023/10/15 12:15:57;;;;;;;15.45;1.70;;;;;;;;;;5012219;28;20467;-75
2023/10/15 12:18:24;;;;;;;15.70;1.90;;;;;;;;;;5012356;28;20420;-73
2023/10/15 12:20:52;;;;;;;15.38;1.83;;;;;;;;;;5012292;28;20428;-74
2023/10/15 12:23:20;;;;;;;16.17;1.90;;;;;;;;;;5010313;28;20420;-73
2023/10/15 12:25:47;;;;;;;15.20;1.50;;;;;;;;;;5012700;28;20415;-74
2023/10/15 12:28:15;;;;;;;17.50;1.80;;;;;;;;;;5012186;28;20882;-75
2023/10/15 12:30:41;;;;;;;15.23;1.77;;;;;;;;;;5016111;28;20755;-76
2023/10/15 12:33:08;;;;;;;16.40;1.90;;;;;;;;;;5010727;28;20420;-76
2023/10/15 12:35:35;;;;;;;15.30;1.70;;;;;;;;;;5012308;28;21027;-74
2023/10/15 12:38:02;;;;;;;17.60;2.20;;;;;;;;;;5042785;28;20461;-80
2023/10/15 12:40:33;;;;;;;14.70;1.70;;;;;;;;;;5008404;28;20416;-81
2023/10/15 12:43:00;;;;;;;16.10;2.00;;;;;;;;;;5005944;28;20479;-77
2023/10/15 12:45:27;;;;;;;18.23;2.10;;;;;;;;;;5012389;28;20440;-79
2023/10/15 12:47:54;;;;;;;20.70;2.00;;;;;;;;;;5012051;28;20467;-77
2023/10/15 12:50:20;;;;;;;16.15;2.10;;;;;;;;;;5031961;28;20421;-81
2023/10/15 12:52:47;;;;;;;15.30;2.20;;;;;;;;;;5044228;28;20436;-80
2023/10/15 12:55:18;;;;;;;15.90;2.28;;;;;;;;;;5043079;28;20424;-81
2023/10/15 12:57:47;;;;;;;19.55;3.15;;;;;;;;;;5026873;28;20432;-77
2023/10/15 13:00:21;;;;;;;16.70;2.50;;;;;;;;;;5028959;28;20583;-77
2023/10/15 13:02:53;;;;;;;16.13;2.55;;;;;;;;;;5012667;28;20436;-77
2023/10/15 13:05:21;;;;;;;17.88;2.80;;;;;;;;;;5001734;28;20426;-77
2023/10/15 13:07:49;;;;;;;16.63;2.53;;;;;;;;;;5011364;28;20424;-77
2023/10/15 13:10:17;;;;;;;16.75;2.70;;;;;;;;;;5009756;28;20459;-78
2023/10/15 13:12:44;;;;;;;17.25;2.75;;;;;;;;;;5010331;28;20770;-76
2023/10/15 13:15:17;;;;;;;16.35;2.33;;;;;;;;;;5008461;28;20463;-77
2023/10/15 13:17:44;;;;;;;17.13;2.13;;;;;;;;;;5010584;28;20424;-78
2023/10/15 13:20:13;;;;;;;16.48;2.40;;;;;;;;;;5016945;28;20403;-77
2023/10/15 13:22:40;;;;;;;15.38;2.17;;;;;;;;;;5042513;28;20874;-75
2023/10/15 13:25:08;;;;;;;15.40;2.00;;;;;;;;;;5011614;28;20831;-76
2023/10/15 13:27:34;;;;;;;16.48;2.10;;;;;;;;;;5004282;28;20822;-77
2023/10/15 13:30:01;;;;;;;16.00;2.50;;;;;;;;;;5011841;28;20440;-76
2023/10/15 13:32:29;;;;;;;16.85;1.80;;;;;;;;;;4996907;28;20428;-76
2023/10/15 13:34:56;;;;;;;16.00;1.70;;;;;;;;;;5023920;28;20501;-74
2023/10/15 13:37:23;;;;;;;14.87;1.60;;;;;;;;;;5008817;28;20960;-77
2023/10/15 13:39:52;;;;;;;15.30;1.80;;;;;;;;;;5010926;28;20416;-77
2023/10/15 13:42:19;;;;;;;14.23;1.20;;;;;;;;;;5011388;28;21075;-75
2023/10/15 13:44:45;;;;;;;15.40;1.60;;;;;;;;;;5026341;28;20449;-74
2023/10/15 13:47:12;;;;;;;14.98;1.40;;;;;;;;;;5025149;28;20428;-73
2023/10/15 13:49:40;;;;;;;16.63;1.70;;;;;;;;;;5010899;28;20436;-76
2023/10/15 13:52:07;;;;;;;15.00;1.50;;;;;;;;;;5009373;28;20466;-75
2023/10/15 13:54:33;;;;;;;17.05;1.70;;;;;;;;;;5011093;28;20409;-75
2023/10/15 13:57:00;;;;;;;15.80;2.00;;;;;;;;;;5009888;28;20500;-79
2023/10/15 13:59:26;;;;;;;15.68;1.50;;;;;;;;;;5042694;28;20417;-76
2023/10/15 14:01:55;;;;;;;18.38;1.58;;;;;;;;;;5005825;28;20416;-73
2023/10/15 14:04:22;;;;;;;14.60;1.50;;;;;;;;;;5010645;28;20412;-74
2023/10/15 14:06:51;;;;;;;15.23;1.50;;;;;;;;;;5009617;28;20451;-74
2023/10/15 14:09:18;;;;;;;14.98;1.60;;;;;;;;;;5009940;28;20471;-74
2023/10/15 14:11:45;;;;;;;16.08;1.40;;;;;;;;;;5015366;28;20466;-75
2023/10/15 14:14:11;;;;;;;14.80;1.40;;;;;;;;;;5015366;28;20502;-73
2023/10/15 14:16:38;;;;;;;14.60;1.33;;;;;;;;;;5013468;28;20462;-74
2023/10/15 14:19:05;;;;;;;16.40;1.50;;;;;;;;;;5009885;28;20483;-73
2023/10/15 14:21:34;;;;;;;15.55;1.50;;;;;;;;;;5018201;28;20444;-73
2023/10/15 14:24:05;;;;;;;15.82;1.45;;;;;;;;;;5014635;28;20436;-72
2023/10/15 14:26:32;;;;;;;16.50;1.70;;;;;;;;;;5013383;28;20429;-73
2023/10/15 14:28:58;;;;;;;15.10;1.30;;;;;;;;;;5034637;28;20428;-73
2023/10/15 14:31:25;;;;;;;16.25;1.58;;;;;;;;;;5014894;28;20527;-72
2023/10/15 14:33:52;;;;;;;15.50;1.50;;;;;;;;;;5014335;28;20408;-74
2023/10/15 14:36:25;;;;;;;16.10;1.70;;;;;;;;;;5015651;28;20432;-72
2023/10/15 14:38:55;;;;;;;15.70;1.60;;;;;;;;;;5029333;28;20543;-73
2023/10/15 14:41:23;;;;;;;15.82;1.60;;;;;;;;;;5044824;28;20408;-75
2023/10/15 14:43:50;;;;;;;15.52;1.75;;;;;;;;;;5011614;28;20503;-75
2023/10/15 14:46:23;;;;;;;18.67;2.22;;;;;;;;;;5046009;28;20411;-73
2023/10/15 14:48:50;;;;;;;17.77;2.00;;;;;;;;;;5027096;28;20441;-73
2023/10/15 14:51:17;;;;;;;17.70;2.20;;;;;;;;;;5015866;28;20503;-73
2023/10/15 14:53:44;;;;;;;15.50;1.80;;;;;;;;;;5014154;28;20405;-73
2023/10/15 14:56:11;;;;;;;17.40;2.10;;;;;;;;;;5027866;28;20409;-73
2023/10/15 14:58:39;;;;;;;15.60;2.03;;;;;;;;;;5013480;28;20432;-73